Time;durP1;ratioP1;P1;durP2;ratioP2;P2;SDS_P1;SDS_P2;PMS_P1;PMS_P2;Temp;Humidity;BMP_temperature;BMP_pressure;BME280_temperature;BME280_humidity;BME280_pressure;Samples;Min_cycle;Max_cycle;Signal;HPM_P1;HPM_P2
2023/02/02 00:00:09;;;;;;;0.60;0.60;;;;;;;6.69;100.00;100305.56;4893650;29;20028;-48
2023/02/02 00:02:35;;;;;;;1.92;1.00;;;;;;;6.38;100.00;100309.63;4886802;29;20060;-49
2023/02/02 00:05:01;;;;;;;0.20;0.20;;;;;;;6.71;100.00;100301.44;4890079;29;20065;-52
2023/02/02 00:07:27;;;;;;;0.20;0.20;;;;;;;6.83;100.00;100306.75;4889943;29;20040;-49
2023/02/02 00:09:52;;;;;;;0.20;0.20;;;;;;;6.84;100.00;100312.88;4893090;29;20037;-54
2023/02/02 00:12:18;;;;;;;0.10;0.10;;;;;;;6.66;100.00;100316.94;4886416;29;20611;-52
2023/02/02 00:14:43;;;;;;;1.15;0.63;;;;;;;6.76;100.00;100314.56;4893903;29;20064;-50
2023/02/02 00:17:10;;;;;;;0.10;0.10;;;;;;;6.76;100.00;100308.44;4888553;29;20041;-52
2023/02/02 00:19:35;;;;;;;0.20;0.20;;;;;;;6.76;100.00;100319.94;4888926;29;20076;-50
2023/02/02 00:22:01;;;;;;;0.15;0.15;;;;;;;6.65;100.00;100316.16;4909873;29;20073;-49
2023/02/02 00:24:27;;;;;;;0.10;0.10;;;;;;;6.97;100.00;100317.88;4935568;29;20036;-52
2023/02/02 00:26:56;;;;;;;0.43;0.43;;;;;;;6.71;100.00;100322.84;4930624;29;20047;-51
2023/02/02 00:29:28;;;;;;;0.47;0.47;;;;;;;6.78;100.00;100314.22;4923903;29;20043;-53
2023/02/02 00:31:54;;;;;;;0.10;0.10;;;;;;;6.83;100.00;100319.38;4933776;29;20035;-52
2023/02/02 00:34:21;;;;;;;0.20;0.20;;;;;;;6.88;100.00;100314.56;4928708;29;20050;-52
2023/02/02 00:36:47;;;;;;;0.10;0.10;;;;;;;6.86;100.00;100329.38;4932585;29;20086;-52
2023/02/02 00:39:19;;;;;;;0.57;0.57;;;;;;;6.73;100.00;100328.66;4932425;29;20382;-49
2023/02/02 03:50:43;;;;;;;0.20;0.20;;;;;;;6.66;100.00;100605.88;4947528;28;20066;-60
2023/02/02 03:53:08;;;;;;;0.30;0.30;;;;;;;6.58;100.00;100609.41;4948033;28;20031;-60
2023/02/02 03:55:34;;;;;;;0.20;0.20;;;;;;;6.79;100.00;100616.28;4949916;28;20043;-60
2023/02/02 03:57:59;;;;;;;0.20;0.20;;;;;;;6.95;100.00;100614.53;4945148;28;20035;-60
2023/02/02 04:00:24;;;;;;;0.20;0.20;;;;;;;6.82;100.00;100614.81;4947420;28;20039;-60
2023/02/02 04:02:50;;;;;;;0.20;0.20;;;;;;;6.87;100.00;100617.31;4951333;28;20090;-60
2023/02/02 04:05:15;;;;;;;0.20;0.20;;;;;;;7.02;100.00;100619.34;4948323;28;20042;-61
2023/02/02 04:07:41;;;;;;;0.20;0.20;;;;;;;6.91;100.00;100632.38;4951718;28;20051;-58
2023/02/02 04:10:07;;;;;;;0.20;0.20;;;;;;;7.08;100.00;100628.75;4951137;28;20046;-60
2023/02/02 04:12:32;;;;;;;0.20;0.20;;;;;;;6.91;100.00;100628.94;4950083;29;20110;-60
2023/02/02 04:14:58;;;;;;;0.20;0.20;;;;;;;6.70;100.00;100623.59;4948907;28;20429;-59
2023/02/02 04:17:23;;;;;;;0.40;0.40;;;;;;;6.72;100.00;100636.66;4948296;28;20089;-59
2023/02/02 04:19:48;;;;;;;0.32;0.30;;;;;;;6.57;100.00;100638.03;4951063;28;20043;-60
2023/02/02 04:22:14;;;;;;;0.20;0.20;;;;;;;6.66;100.00;100648.69;4945653;29;20118;-60
2023/02/02 04:24:39;;;;;;;0.10;0.10;;;;;;;6.44;100.00;100636.44;4947186;28;20043;-59
2023/02/02 04:27:05;;;;;;;0.13;0.13;;;;;;;6.46;100.00;100650.25;4952188;28;20042;-60
2023/02/02 04:29:30;;;;;;;0.40;0.40;;;;;;;6.66;100.00;100646.78;4952342;28;20478;-60
2023/02/02 04:31:56;;;;;;;0.17;0.17;;;;;;;6.74;100.00;100656.63;4952966;29;20159;-60
2023/02/02 04:34:22;;;;;;;0.10;0.10;;;;;;;6.69;100.00;100664.06;4948810;28;20035;-58
2023/02/02 04:36:47;;;;;;;0.15;0.15;;;;;;;6.75;100.00;100668.09;4953991;28;20027;-58
2023/02/02 04:39:13;;;;;;;0.20;0.20;;;;;;;6.80;100.00;100673.25;4943716;28;20035;-59
2023/02/02 04:41:38;;;;;;;0.30;0.30;;;;;;;6.76;100.00;100691.06;4938385;29;20062;-59
2023/02/02 05:10:28;;;;;;;0.20;0.20;;;;;;;6.84;100.00;100698.25;4943105;29;20192;-58
2023/02/02 05:12:54;;;;;;;0.20;0.20;;;;;;;6.84;100.00;100706.28;4950115;28;20050;-60
2023/02/02 05:15:20;;;;;;;0.20;0.20;;;;;;;6.76;100.00;100702.56;4951246;28;20106;-60
2023/02/02 05:17:46;;;;;;;0.43;0.43;;;;;;;6.64;100.00;100702.50;4952168;28;20498;-61
2023/02/02 05:20:12;;;;;;;0.20;0.20;;;;;;;6.81;100.00;100701.59;4953976;28;20035;-61
2023/02/02 05:22:38;;;;;;;0.20;0.20;;;;;;;6.65;100.00;100712.09;4947769;29;20042;-60
2023/02/02 05:25:05;;;;;;;0.22;0.22;;;;;;;6.65;100.00;100706.75;4950048;28;20035;-60
2023/02/02 05:27:30;;;;;;;0.32;0.32;;;;;;;6.91;100.00;100707.31;4953148;28;20434;-60
2023/02/02 05:29:56;;;;;;;0.20;0.20;;;;;;;6.75;100.00;100716.28;4947673;28;20102;-61
2023/02/02 05:32:22;;;;;;;0.20;0.20;;;;;;;6.87;100.00;100713.66;4950768;29;20035;-61
2023/02/02 05:34:47;;;;;;;0.20;0.20;;;;;;;6.85;100.00;100722.00;4946588;28;20032;-60
2023/02/02 05:37:12;;;;;;;0.20;0.20;;;;;;;6.92;100.00;100727.63;4950845;29;20524;-60
2023/02/02 05:39:38;;;;;;;0.47;0.47;;;;;;;6.79;100.00;100722.53;4946082;28;20087;-58
2023/02/02 05:42:04;;;;;;;0.20;0.20;;;;;;;6.62;100.00;100739.50;4950758;28;20043;-59
2023/02/02 05:44:29;;;;;;;0.20;0.20;;;;;;;6.31;100.00;100721.13;4948113;29;20031;-61
2023/02/02 05:46:54;;;;;;;0.20;0.20;;;;;;;6.33;100.00;100731.50;4948393;29;20527;-61
2023/02/02 05:49:20;;;;;;;0.85;0.85;;;;;;;6.25;100.00;100735.03;4948467;28;20627;-60
2023/02/02 05:51:49;;;;;;;0.65;0.65;;;;;;;6.33;100.00;100739.53;4957616;28;20027;-59
2023/02/02 05:54:19;;;;;;;0.20;0.20;;;;;;;6.37;100.00;100730.53;4946970;28;20069;-58
2023/02/02 05:56:46;;;;;;;0.45;0.45;;;;;;;6.44;100.00;100747.97;4943061;29;20063;-58
2023/02/02 05:59:12;;;;;;;0.20;0.20;;;;;;;6.57;100.00;100754.97;4944213;28;20062;-57
2023/02/02 06:01:37;;;;;;;0.20;0.20;;;;;;;6.31;100.00;100749.75;4953086;28;20040;-61
2023/02/02 06:04:03;;;;;;;0.20;0.20;;;;;;;6.59;100.00;100748.19;4948052;29;20078;-60
2023/02/02 06:06:28;;;;;;;0.20;0.20;;;;;;;6.56;100.00;100751.53;4940400;28;20043;-59
2023/02/02 06:08:54;;;;;;;0.30;0.30;;;;;;;6.49;100.00;100759.25;4942030;29;20039;-60
2023/02/02 06:11:19;;;;;;;0.20;0.20;;;;;;;6.53;100.00;100775.44;4946860;28;20030;-60
2023/02/02 06:13:45;;;;;;;0.20;0.20;;;;;;;6.77;100.00;100773.72;4944052;28;20044;-60
2023/02/02 06:16:10;;;;;;;0.20;0.20;;;;;;;6.67;100.00;100762.59;4963238;28;20029;-60
2023/02/02 06:18:36;;;;;;;0.50;0.50;;;;;;;6.47;100.00;100769.50;4941656;28;20545;-61
2023/02/02 06:21:04;;;;;;;0.20;0.20;;;;;;;6.21;100.00;100785.69;4929175;28;20049;-60
2023/02/02 06:23:31;;;;;;;0.20;0.20;;;;;;;6.30;100.00;100781.09;4942249;28;20027;-61
2023/02/02 06:25:58;;;;;;;0.20;0.20;;;;;;;6.49;100.00;100783.34;4944131;29;20039;-61
2023/02/02 06:28:23;;;;;;;0.20;0.20;;;;;;;6.66;100.00;100782.47;4951484;28;20042;-60
2023/02/02 06:30:49;;;;;;;0.20;0.20;;;;;;;6.44;100.00;100791.56;4940245;28;20097;-61
2023/02/02 06:33:14;;;;;;;0.10;0.10;;;;;;;6.37;100.00;100791.25;4936751;28;20158;-61
2023/02/02 06:35:40;;;;;;;0.20;0.20;;;;;;;6.52;100.00;100803.31;4942581;28;20023;-61
2023/02/02 06:38:05;;;;;;;0.30;0.30;;;;;;;6.34;100.00;100797.25;4941033;29;20102;-60
2023/02/02 06:40:31;;;;;;;0.20;0.20;;;;;;;6.67;100.00;100800.06;4936550;28;20047;-60
2023/02/02 06:42:58;;;;;;;0.10;0.10;;;;;;;6.78;100.00;100801.25;4943428;28;20402;-61
2023/02/02 06:45:24;;;;;;;0.30;0.30;;;;;;;6.61;100.00;100809.38;4933617;29;21089;-59
2023/02/02 06:47:49;;;;;;;0.20;0.20;;;;;;;6.87;100.00;100821.47;4943468;29;20140;-60
2023/02/02 06:50:15;;;;;;;0.20;0.20;;;;;;;6.63;100.00;100813.31;4948472;29;20522;-60
2023/02/02 06:52:51;;;;;;;0.20;0.20;;;;;;;6.51;100.00;100829.25;4949500;28;20049;-60
2023/02/02 06:55:17;;;;;;;0.30;0.30;;;;;;;6.42;100.00;100825.06;4947614;29;20094;-59
2023/02/02 06:57:42;;;;;;;0.20;0.20;;;;;;;6.75;100.00;100831.34;4941423;28;20518;-61
2023/02/02 07:00:09;;;;;;;0.45;0.43;;;;;;;6.62;100.00;100829.69;4946504;28;20042;-61
2023/02/02 07:02:34;;;;;;;0.22;0.22;;;;;;;6.61;100.00;100823.56;4949596;28;20069;-61
2023/02/02 07:05:01;;;;;;;0.20;0.20;;;;;;;6.65;100.00;100824.47;4948513;28;20624;-61
2023/02/02 07:07:27;;;;;;;0.38;0.38;;;;;;;6.85;100.00;100831.72;4943812;28;20026;-61
2023/02/02 07:09:52;;;;;;;0.30;0.30;;;;;;;6.85;100.00;100837.09;4947993;28;20479;-61
2023/02/02 07:12:18;;;;;;;0.30;0.30;;;;;;;6.57;100.00;100843.22;4946895;28;20042;-59
2023/02/02 07:14:44;;;;;;;0.10;0.10;;;;;;;6.63;100.00;100848.09;4941727;28;20055;-59
2023/02/02 07:17:10;;;;;;;0.10;0.10;;;;;;;6.50;100.00;100854.47;4944007;28;20066;-61
2023/02/02 07:19:36;;;;;;;0.20;0.20;;;;;;;6.65;100.00;100853.09;4949892;29;20046;-61
2023/02/02 07:22:01;;;;;;;0.20;0.20;;;;;;;6.58;100.00;100858.19;4949646;28;20039;-60
2023/02/02 07:24:27;;;;;;;0.20;0.20;;;;;;;6.50;100.00;100867.03;4950727;28;20035;-61
2023/02/02 07:26:53;;;;;;;0.13;0.13;;;;;;;6.50;100.00;100864.38;4950516;29;20039;-61
2023/02/02 07:29:18;;;;;;;0.20;0.20;;;;;;;6.44;100.00;100876.34;4955048;28;20399;-61
2023/02/02 07:31:44;;;;;;;0.40;0.40;;;;;;;6.50;100.00;100880.41;4947855;29;20059;-61
2023/02/02 07:34:09;;;;;;;0.20;0.20;;;;;;;6.50;100.00;100883.88;4949832;29;20039;-60
2023/02/02 07:36:35;;;;;;;0.20;0.20;;;;;;;6.45;100.00;100888.59;4944508;28;20534;-59
2023/02/02 07:39:03;;;;;;;0.20;0.20;;;;;;;6.34;100.00;100878.28;4944059;28;20502;-59
2023/02/02 07:41:29;;;;;;;0.30;0.30;;;;;;;6.47;100.00;100889.84;4950075;28;20035;-60
2023/02/02 07:43:54;;;;;;;0.50;0.50;;;;;;;6.37;100.00;100885.66;4945555;28;20506;-59
2023/02/02 07:46:20;;;;;;;0.20;0.20;;;;;;;6.49;100.00;100898.34;4946731;29;20035;-61
2023/02/02 07:48:46;;;;;;;0.20;0.20;;;;;;;6.63;100.00;100900.81;4953262;28;20037;-60
2023/02/02 07:51:14;;;;;;;0.30;0.30;;;;;;;6.68;100.00;100908.66;4939464;28;20387;-60
2023/02/02 07:53:45;;;;;;;0.20;0.20;;;;;;;6.72;100.00;100914.91;4949299;29;20023;-61
2023/02/02 07:56:28;;;;;;;0.20;0.20;;;;;;;6.72;100.00;100918.38;4937463;29;20031;-60
2023/02/02 07:58:54;;;;;;;0.20;0.20;;;;;;;6.75;100.00;100930.34;4944447;28;20039;-60
2023/02/02 08:01:25;;;;;;;0.20;0.20;;;;;;;6.71;100.00;100924.88;4941104;28;20027;-59
2023/02/02 08:03:52;;;;;;;0.20;0.20;;;;;;;6.75;100.00;100938.38;4954251;28;20040;-61
2023/02/02 08:06:30;;;;;;;1.02;0.90;;;;;;;6.65;100.00;100934.16;4951634;29;20069;-61
2023/02/02 08:08:59;;;;;;;0.20;0.20;;;;;;;6.91;100.00;100937.50;4952390;28;20039;-60
2023/02/02 08:11:24;;;;;;;0.20;0.20;;;;;;;6.98;100.00;100940.47;4954144;28;20097;-60
2023/02/02 08:13:52;;;;;;;0.20;0.20;;;;;;;6.94;100.00;100944.91;4951690;28;20024;-60
2023/02/02 08:16:18;;;;;;;1.50;1.40;;;;;;;7.05;100.00;100951.44;4942421;29;20158;-60
2023/02/02 08:18:44;;;;;;;0.20;0.20;;;;;;;7.10;100.00;100953.94;4947792;28;20126;-60
2023/02/02 08:21:11;;;;;;;2.42;1.15;;;;;;;7.32;100.00;100956.31;4967237;28;20129;-61
2023/02/02 08:23:51;;;;;;;0.20;0.20;;;;;;;7.28;100.00;100960.75;4964038;28;20043;-47
2023/02/02 08:26:18;;;;;;;0.20;0.20;;;;;;;7.17;100.00;100959.56;4972941;28;20038;-44
2023/02/02 08:28:47;;;;;;;0.20;0.20;;;;;;;7.09;100.00;100973.00;4972396;28;20386;-49
2023/02/02 08:31:25;;;;;;;0.10;0.10;;;;;;;7.26;100.00;100967.53;4969001;28;20109;-45
2023/02/02 08:33:53;;;;;;;0.20;0.20;;;;;;;7.36;100.00;100977.88;4970273;28;20035;-47
2023/02/02 08:36:21;;;;;;;0.20;0.20;;;;;;;7.47;100.00;100980.97;4963898;28;20106;-47
2023/02/02 08:38:47;;;;;;;0.20;0.20;;;;;;;7.33;100.00;100978.53;4971615;28;20035;-45
2023/02/02 08:41:17;;;;;;;0.10;0.10;;;;;;;7.28;100.00;100984.88;4971942;28;20054;-46
2023/02/02 08:43:42;;;;;;;0.10;0.10;;;;;;;7.23;100.00;100992.31;4971886;28;20425;-51
2023/02/02 08:46:11;;;;;;;0.50;0.50;;;;;;;7.31;100.00;100994.16;4969781;28;20056;-44
2023/02/02 08:48:36;;;;;;;0.20;0.20;;;;;;;7.36;100.00;100998.53;4972131;28;20030;-45
2023/02/02 08:51:03;;;;;;;0.20;0.20;;;;;;;7.38;100.00;100998.97;4972938;28;20508;-44
2023/02/02 08:53:28;;;;;;;0.10;0.10;;;;;;;7.59;100.00;100997.13;4973432;28;20042;-46
2023/02/02 08:56:05;;;;;;;0.20;0.20;;;;;;;7.89;100.00;100998.63;4971713;28;20031;-49
2023/02/02 08:58:32;;;;;;;0.10;0.10;;;;;;;8.05;100.00;100999.63;4972878;28;20035;-45
2023/02/02 09:01:12;;;;;;;0.10;0.10;;;;;;;8.21;99.07;101003.22;4970096;28;20382;-44
2023/02/02 09:03:39;;;;;;;0.10;0.10;;;;;;;8.31;97.57;101007.44;4967300;28;20046;-53
2023/02/02 09:06:10;;;;;;;0.20;0.20;;;;;;;8.53;97.19;101015.91;4972841;28;20039;-46
2023/02/02 09:08:36;;;;;;;0.15;0.15;;;;;;;8.82;96.50;101023.00;4964058;28;20544;-45
2023/02/02 09:11:07;;;;;;;0.00;0.00;;;;;;;8.89;95.27;101025.91;4959308;28;20074;-47
2023/02/02 09:13:33;;;;;;;0.10;0.10;;;;;;;8.94;94.49;101023.03;4972497;28;20490;-44
2023/02/02 09:16:00;;;;;;;0.10;0.10;;;;;;;9.13;93.79;101033.22;4968864;28;20051;-49
2023/02/02 09:18:25;;;;;;;0.35;0.35;;;;;;;9.20;93.10;101030.75;4968617;28;20042;-52
2023/02/02 09:20:51;;;;;;;0.00;0.00;;;;;;;9.21;92.44;101033.13;4971918;28;20030;-45
2023/02/02 09:23:16;;;;;;;0.10;0.10;;;;;;;9.12;92.01;101032.44;4972038;28;20031;-48
2023/02/02 09:25:42;;;;;;;0.10;0.10;;;;;;;9.16;92.24;101035.22;4971410;28;20077;-55
2023/02/02 09:28:07;;;;;;;0.10;0.10;;;;;;;9.24;92.17;101045.09;4972183;28;20042;-47
2023/02/02 09:30:33;;;;;;;0.10;0.10;;;;;;;9.44;91.15;101049.56;4972484;28;20508;-45
2023/02/02 09:32:58;;;;;;;0.00;0.00;;;;;;;9.16;91.44;101059.41;4972302;28;20039;-52
2023/02/02 09:35:24;;;;;;;0.15;0.15;;;;;;;9.09;91.25;101058.09;4971307;28;20505;-44
2023/02/02 09:37:49;;;;;;;0.10;0.10;;;;;;;9.18;91.31;101071.41;4971030;28;20117;-47
2023/02/02 09:40:18;;;;;;;0.10;0.10;;;;;;;9.18;92.33;101081.34;4968342;28;20441;-50
2023/02/02 09:42:58;;;;;;;0.10;0.10;;;;;;;8.86;92.67;101077.63;4971718;28;20184;-47
2023/02/02 09:45:36;;;;;;;0.30;0.30;;;;;;;8.82;93.08;101082.88;4971968;28;20389;-47
2023/02/02 09:48:10;;;;;;;0.10;0.10;;;;;;;9.01;91.98;101087.72;4968327;28;20035;-48
2023/02/02 09:50:48;;;;;;;0.10;0.10;;;;;;;8.87;91.34;101097.97;4971497;28;20480;-46
2023/02/02 09:53:25;;;;;;;0.10;0.10;;;;;;;8.70;92.87;101090.91;4972160;28;20491;-47
2023/02/02 09:55:54;;;;;;;0.10;0.10;;;;;;;8.92;91.22;101111.97;4969812;28;20054;-47
2023/02/02 09:58:24;;;;;;;0.10;0.10;;;;;;;8.81;91.52;101097.41;4967948;28;20023;-54
2023/02/02 10:01:00;;;;;;;0.10;0.10;;;;;;;8.99;92.30;101101.50;4970979;28;20085;-47
2023/02/02 10:03:41;;;;;;;0.10;0.10;;;;;;;9.09;91.23;101102.97;4972000;28;20031;-46
2023/02/02 10:06:33;;;;;;;0.10;0.10;;;;;;;9.12;90.94;101109.56;4968262;28;20118;-47
2023/02/02 10:09:07;;;;;;;0.10;0.10;;;;;;;9.42;90.50;101110.94;4971390;28;20058;-54
2023/02/02 10:11:41;;;;;;;0.08;0.08;;;;;;;9.63;90.33;101117.00;4964354;28;20031;-47
2023/02/02 10:14:17;;;;;;;0.38;0.38;;;;;;;9.54;88.87;101127.09;4986291;28;20038;-45
2023/02/02 10:16:43;;;;;;;0.50;0.50;;;;;;;9.35;89.28;101113.41;4971592;28;20500;-47
2023/02/02 10:19:12;;;;;;;0.10;0.10;;;;;;;9.40;88.91;101113.97;4971018;28;20046;-45
2023/02/02 10:21:43;;;;;;;0.22;0.22;;;;;;;9.48;87.65;101128.44;4970468;28;20034;-51
2023/02/02 10:24:19;;;;;;;0.10;0.10;;;;;;;9.67;87.82;101128.66;4970646;28;20041;-45
2023/02/02 10:26:48;;;;;;;0.10;0.10;;;;;;;9.64;88.31;101132.78;4951061;28;20505;-49
2023/02/02 10:29:42;;;;;;;0.10;0.10;;;;;;;9.62;88.43;101134.28;4968324;28;20031;-43
2023/02/02 10:32:22;;;;;;;0.17;0.17;;;;;;;9.48;88.49;101149.94;4969131;28;20100;-48
2023/02/02 10:34:55;;;;;;;0.10;0.10;;;;;;;9.44;87.87;101138.28;4969909;28;20088;-58
2023/02/02 10:37:50;;;;;;;0.10;0.10;;;;;;;9.49;87.40;101151.50;4955826;28;20081;-54
2023/02/02 10:40:21;;;;;;;0.98;0.88;;;;;;;9.53;87.29;101157.75;4976285;28;20058;-64
2023/02/02 10:45:57;;;;;;;7.55;2.10;;;;;;;9.31;87.30;101185.06;4978741;28;20129;-61
2023/02/02 10:48:33;;;;;;;5.68;2.53;;;;;;;9.14;86.61;101190.63;4957113;28;20039;-56
2023/02/02 10:51:01;;;;;;;1.92;1.75;;;;;;;9.27;86.76;101198.38;4968744;28;20485;-56
2023/02/02 10:53:29;;;;;;;1.02;0.75;;;;;;;9.24;87.25;101190.97;4964935;28;20590;-58
2023/02/02 10:56:01;;;;;;;0.10;0.10;;;;;;;9.49;86.65;101197.19;4975648;28;20517;-51
2023/02/02 10:58:47;;;;;;;1.08;0.98;;;;;;;9.52;86.40;101197.31;4965966;28;20031;-52
2023/02/02 11:01:16;;;;;;;0.03;0.03;;;;;;;9.52;86.07;101199.22;4964073;28;20039;-50
2023/02/02 11:03:42;;;;;;;0.10;0.10;;;;;;;9.44;85.98;101203.59;4966705;28;20544;-57
2023/02/02 11:09:03;;;;;;;0.10;0.10;;;;;;;9.07;86.41;101208.06;4961017;28;20429;-56
2023/02/02 11:11:38;;;;;;;0.57;0.50;;;;;;;8.89;87.05;101209.34;4966751;28;20053;-56
2023/02/02 11:14:06;;;;;;;0.10;0.10;;;;;;;8.93;87.22;101218.31;4968000;28;20053;-55
2023/02/02 11:16:36;;;;;;;0.90;0.32;;;;;;;9.05;86.63;101204.94;4961987;28;20038;-59
2023/02/02 11:19:21;;;;;;;0.10;0.10;;;;;;;8.88;85.54;101215.81;4965283;28;20031;-50
2023/02/02 11:21:55;;;;;;;3.83;0.75;;;;;;;8.88;85.99;101206.97;4960305;28;20148;-59
2023/02/02 11:24:25;;;;;;;0.10;0.10;;;;;;;9.02;85.59;101210.16;4960741;28;20042;-57
2023/02/02 11:27:07;;;;;;;0.50;0.50;;;;;;;9.05;85.70;101213.00;4970196;28;20516;-57
2023/02/02 11:29:38;;;;;;;0.10;0.10;;;;;;;9.09;85.64;101208.53;4965312;28;20054;-52
2023/02/02 11:32:17;;;;;;;;;;;;;;;9.17;85.53;101206.88;4968331;28;20477;-52
2023/02/02 11:34:42;;;;;;;0.13;0.13;;;;;;;9.28;84.80;101212.59;4971145;28;20581;-55
2023/02/02 11:37:11;;;;;;;0.10;0.10;;;;;;;9.45;84.74;101207.03;4988758;28;20133;-51
2023/02/02 11:39:41;;;;;;;0.10;0.10;;;;;;;9.56;84.46;101208.19;4963861;28;20019;-52
2023/02/02 11:42:17;;;;;;;0.20;0.20;;;;;;;9.58;84.33;101212.09;4969627;28;20035;-53
2023/02/02 11:44:49;;;;;;;0.10;0.10;;;;;;;9.74;83.75;101210.34;4967948;28;20113;-55
2023/02/02 11:47:20;;;;;;;0.10;0.10;;;;;;;9.77;83.38;101215.06;4973846;28;20129;-55
2023/02/02 11:49:46;;;;;;;;;;;;;;;9.91;83.65;101212.81;4974181;28;20070;-58
2023/02/02 11:52:19;;;;;;;0.10;0.10;;;;;;;10.00;82.46;101208.13;4971747;28;20396;-50
2023/02/02 11:54:55;;;;;;;1.08;0.80;;;;;;;10.03;82.03;101223.56;4973495;28;20054;-53
2023/02/02 11:57:24;;;;;;;0.10;0.10;;;;;;;10.00;81.46;101215.41;4987906;28;20058;-58
2023/02/02 12:00:05;;;;;;;0.10;0.10;;;;;;;9.90;80.92;101222.00;4973192;28;20031;-51
2023/02/02 12:02:32;;;;;;;0.05;0.05;;;;;;;9.91;81.69;101225.50;4984996;28;20125;-51
2023/02/02 12:05:35;;;;;;;0.10;0.10;;;;;;;10.21;80.88;101221.47;4972542;28;20066;-57
2023/02/02 12:08:00;;;;;;;0.10;0.10;;;;;;;10.27;80.11;101220.13;4931933;29;20562;-58
2023/02/02 12:10:49;;;;;;;0.20;0.20;;;;;;;10.18;79.17;101213.28;4966400;28;20043;-53
2023/02/02 12:13:51;;;;;;;0.00;0.00;;;;;;;9.99;80.13;101228.06;4972656;28;20051;-56
2023/02/02 12:16:22;;;;;;;;;;;;;;;10.17;80.00;101227.84;4970351;28;20031;-53
2023/02/02 12:19:13;;;;;;;0.10;0.10;;;;;;;10.13;79.85;101238.50;4973126;28;19961;-53
2023/02/02 12:21:44;;;;;;;0.10;0.10;;;;;;;10.29;80.49;101231.34;4986075;28;20409;-56
2023/02/02 12:24:30;;;;;;;0.05;0.05;;;;;;;10.39;80.22;101233.56;4956470;28;20126;-50
2023/02/02 12:27:04;;;;;;;0.10;0.10;;;;;;;10.35;79.78;101246.13;4972719;28;20035;-55
2023/02/02 12:29:55;;;;;;;0.10;0.10;;;;;;;10.20;79.88;101252.19;4973711;28;20046;-54
2023/02/02 12:33:00;;;;;;;0.03;0.03;;;;;;;10.19;80.09;101249.84;4967939;28;20042;-58
2023/02/02 12:35:59;;;;;;;0.10;0.10;;;;;;;10.24;81.53;101247.69;4964678;28;20062;-56
2023/02/02 12:38:34;;;;;;;0.10;0.10;;;;;;;10.35;80.93;101246.13;4986628;28;20046;-59
2023/02/02 12:41:14;;;;;;;0.00;0.00;;;;;;;10.40;79.96;101237.03;4973697;28;20114;-57
2023/02/02 12:43:43;;;;;;;0.00;0.00;;;;;;;10.17;79.91;101242.09;4968518;28;20035;-54
2023/02/02 12:46:27;;;;;;;0.10;0.10;;;;;;;10.20;80.29;101246.81;4973530;28;20038;-57
2023/02/02 12:49:10;;;;;;;0.10;0.10;;;;;;;10.08;80.47;101241.41;4960917;28;20038;-53
2023/02/02 12:52:14;;;;;;;0.10;0.10;;;;;;;9.98;78.92;101247.22;4972271;28;20067;-53
2023/02/02 12:54:56;;;;;;;0.00;0.00;;;;;;;10.00;77.06;101245.00;4973559;28;20183;-59
2023/02/02 12:57:59;;;;;;;0.15;0.15;;;;;;;9.75;78.04;101248.78;4963749;28;20038;-56
2023/02/02 13:00:42;;;;;;;0.28;0.28;;;;;;;9.61;79.16;101243.72;4973179;28;20035;-53
2023/02/02 13:03:26;;;;;;;0.00;0.00;;;;;;;9.59;78.20;101245.94;4972224;28;20097;-52
2023/02/02 13:06:20;;;;;;;0.10;0.10;;;;;;;9.80;77.60;101256.63;4972479;28;20389;-53
2023/02/02 13:09:15;;;;;;;0.00;0.00;;;;;;;9.70;79.00;101252.47;4984926;28;20062;-57
2023/02/02 13:11:53;;;;;;;0.10;0.10;;;;;;;9.73;79.16;101257.19;4967639;28;20089;-51
2023/02/02 13:14:34;;;;;;;0.00;0.00;;;;;;;9.99;78.96;101262.25;4973090;28;20118;-55
2023/02/02 13:17:08;;;;;;;0.00;0.00;;;;;;;9.89;80.26;101263.47;4960574;28;20046;-59
2023/02/02 13:19:50;;;;;;;0.10;0.10;;;;;;;9.86;80.31;101269.53;4961993;28;20425;-51
2023/02/02 13:22:40;;;;;;;0.10;0.10;;;;;;;9.77;80.48;101260.00;4963805;28;20026;-55
2023/02/02 13:25:17;;;;;;;0.00;0.00;;;;;;;9.91;80.47;101271.22;4972579;28;20039;-55
2023/02/02 13:27:43;;;;;;;0.10;0.10;;;;;;;10.09;80.38;101271.78;4958047;28;20178;-59
2023/02/02 13:30:26;;;;;;;0.10;0.10;;;;;;;10.17;80.23;101274.41;4964722;28;20023;-52
2023/02/02 13:32:57;;;;;;;0.10;0.10;;;;;;;10.18;80.01;101270.56;4980995;28;20074;-54
2023/02/02 13:35:30;;;;;;;0.10;0.10;;;;;;;10.32;79.38;101279.09;4960923;28;20042;-56
2023/02/02 13:38:15;;;;;;;0.08;0.08;;;;;;;10.43;79.10;101274.06;4948872;28;20061;-57
2023/02/02 13:40:42;;;;;;;0.10;0.10;;;;;;;10.49;78.77;101270.03;4957665;28;20026;-54
2023/02/02 13:43:07;;;;;;;0.10;0.10;;;;;;;10.59;77.84;101274.91;4954406;28;20039;-57
2023/02/02 13:46:07;;;;;;;0.10;0.10;;;;;;;10.68;77.24;101281.75;4957972;28;20027;-55
2023/02/02 13:48:50;;;;;;;0.10;0.10;;;;;;;10.62;76.96;101283.13;4957604;28;20039;-53
2023/02/02 13:51:16;;;;;;;0.00;0.00;;;;;;;10.55;76.85;101276.75;4957921;28;20050;-55
2023/02/02 13:54:02;;;;;;;0.08;0.08;;;;;;;10.70;75.65;101274.13;4953308;28;20030;-60
2023/02/02 13:57:05;;;;;;;0.03;0.03;;;;;;;10.81;74.44;101285.22;4955234;28;20034;-57
2023/02/02 13:59:52;;;;;;;0.00;0.00;;;;;;;10.79;74.70;101277.47;4966731;28;20057;-60
2023/02/02 14:02:42;;;;;;;0.00;0.00;;;;;;;10.77;73.67;101287.03;4964114;28;20425;-59
2023/02/02 14:05:20;;;;;;;0.10;0.10;;;;;;;10.67;74.49;101290.97;4959525;28;20045;-56
2023/02/02 14:07:47;;;;;;;0.30;0.30;;;;;;;10.64;74.47;101290.88;4961802;28;20090;-60
2023/02/02 14:10:24;;;;;;;0.30;0.30;;;;;;;10.72;73.13;101287.28;4967258;28;20065;-57
2023/02/02 14:12:50;;;;;;;0.70;0.65;;;;;;;10.66;72.79;101284.03;4968764;28;20053;-52
2023/02/02 14:15:16;;;;;;;0.00;0.00;;;;;;;10.53;73.50;101289.75;4956525;28;20133;-60
2023/02/02 14:17:42;;;;;;;0.28;0.28;;;;;;;10.21;75.17;101291.44;4959320;28;20827;-56
2023/02/02 14:21:03;;;;;;;0.10;0.10;;;;;;;10.27;75.27;101292.00;4965591;28;20077;-60
2023/02/02 14:24:39;;;;;;;0.10;0.10;;;;;;;10.38;74.99;101288.53;4974204;23;20109;-64
2023/02/02 14:27:07;;;;;;;0.10;0.10;;;;;;;10.48;75.47;101293.47;4899365;29;20170;-65
2023/02/02 14:29:35;;;;;;;0.10;0.10;;;;;;;10.54;75.39;101300.19;4946039;28;20035;-64
2023/02/02 14:32:28;;;;;;;0.00;0.00;;;;;;;10.51;74.17;101294.72;4950726;28;20082;-65
2023/02/02 14:35:17;;;;;;;0.10;0.10;;;;;;;10.60;74.11;101295.34;4953126;28;20035;-66
2023/02/02 14:38:04;;;;;;;0.05;0.05;;;;;;;10.45;74.13;101304.91;4964460;28;20157;-65
2023/02/02 14:40:50;;;;;;;0.75;0.75;;;;;;;10.41;74.60;101308.63;4954634;28;20035;-64
2023/02/02 14:43:44;;;;;;;0.00;0.00;;;;;;;10.41;74.74;101312.09;4957678;28;20047;-66
2023/02/02 14:46:14;;;;;;;0.10;0.10;;;;;;;10.47;74.28;101318.81;4951080;28;20035;-65
2023/02/02 14:48:42;;;;;;;0.10;0.10;;;;;;;10.48;74.84;101324.97;4969802;28;20027;-66
2023/02/02 14:51:20;;;;;;;0.10;0.10;;;;;;;10.41;75.27;101325.56;4965846;28;20023;-65
2023/02/02 14:53:58;;;;;;;0.03;0.03;;;;;;;10.25;75.16;101326.56;4955080;28;20048;-65
2023/02/02 14:56:59;;;;;;;0.20;0.20;;;;;;;10.40;75.55;101329.38;4953658;28;20902;-65
2023/02/02 14:59:37;;;;;;;0.10;0.10;;;;;;;10.47;75.18;101343.03;4931888;28;20047;-65
2023/02/02 15:02:29;;;;;;;0.30;0.20;;;;;;;10.32;75.58;101351.78;4961466;28;20795;-65
2023/02/02 15:05:14;;;;;;;;;;;;;;;10.40;74.66;101356.28;4967613;28;20046;-65
2023/02/02 15:07:52;;;;;;;0.03;0.03;;;;;;;10.44;74.10;101351.00;4975130;28;20060;-65
2023/02/02 15:10:44;;;;;;;0.10;0.10;;;;;;;10.09;73.77;101361.38;4964687;28;20057;-65
2023/02/02 15:13:14;;;;;;;;;;;;;;;9.80;74.25;101359.63;4938388;28;20551;-66
2023/02/02 15:15:42;;;;;;;0.10;0.10;;;;;;;9.75;74.48;101367.13;4969644;28;20000;-66
2023/02/02 15:18:21;;;;;;;0.10;0.10;;;;;;;9.87;73.78;101373.31;4964402;28;20035;-65
2023/02/02 15:20:55;;;;;;;0.08;0.08;;;;;;;9.48;74.77;101371.16;4969100;28;20151;-65
2023/02/02 15:23:29;;;;;;;0.10;0.10;;;;;;;9.57;75.03;101366.50;4967583;28;20038;-66
2023/02/02 15:26:04;;;;;;;0.10;0.10;;;;;;;9.54;74.69;101374.44;4971408;28;20031;-66
2023/02/02 15:28:55;;;;;;;0.10;0.10;;;;;;;9.56;74.00;101380.25;4964104;28;20038;-65
2023/02/02 15:31:58;;;;;;;0.10;0.10;;;;;;;9.28;75.53;101371.16;4964879;28;20035;-65
2023/02/02 15:34:29;;;;;;;0.10;0.10;;;;;;;9.34;75.81;101378.69;4925135;29;20123;-65